Time;durP1;ratioP1;P1;durP2;ratioP2;P2;SDS_P1;SDS_P2;PMS_P1;PMS_P2;Temp;Humidity;BMP_temperature;BMP_pressure;BME280_temperature;BME280_humidity;BME280_pressure;Samples;Min_cycle;Max_cycle;Signal;HPM_P1;HPM_P2
2024/02/27 00:00:50;;;;;;;22.30;11.80;;;;;;;3.01;59.31;101017.92;106988;1254;66181;-68
2024/02/27 00:03:17;;;;;;;18.90;10.90;;;;;;;3.01;59.21;101016.02;106987;1253;60325;-68
2024/02/27 00:05:44;;;;;;;19.20;11.50;;;;;;;3.00;59.07;101014.67;106983;1253;63073;-69
2024/02/27 00:08:11;;;;;;;20.80;11.60;;;;;;;2.99;58.97;101020.95;106996;1253;60248;-68
2024/02/27 00:10:37;;;;;;;17.20;10.60;;;;;;;2.99;58.89;101015.57;107009;1254;60265;-69
2024/02/27 00:13:04;;;;;;;22.50;11.20;;;;;;;2.98;58.72;101017.16;106980;1253;65009;-70
2024/02/27 00:15:31;;;;;;;17.80;10.00;;;;;;;2.97;58.56;101024.86;107011;1254;60373;-68
2024/02/27 00:17:58;;;;;;;15.90;9.30;;;;;;;2.97;58.35;101025.88;106993;1254;64343;-68
2024/02/27 00:20:26;;;;;;;20.30;9.60;;;;;;;2.99;58.31;101024.60;106822;1254;59173;-69
2024/02/27 00:22:54;;;;;;;19.70;8.50;;;;;;;3.00;58.14;101025.09;106857;1254;59928;-68
2024/02/27 00:25:21;;;;;;;17.00;9.10;;;;;;;3.01;57.99;101021.76;106716;1254;65072;-69
2024/02/27 00:27:50;;;;;;;16.50;7.80;;;;;;;3.01;57.73;101022.45;106861;1258;60322;-68
2024/02/27 00:30:17;;;;;;;16.20;7.80;;;;;;;3.01;57.48;101022.47;106702;1254;64646;-68
2024/02/27 00:32:44;;;;;;;14.40;7.40;;;;;;;3.00;57.30;101019.34;106850;1254;59734;-68
2024/02/27 00:35:11;;;;;;;14.30;7.50;;;;;;;3.01;57.14;101020.02;106858;1254;60553;-68
2024/02/27 00:37:38;;;;;;;11.50;7.10;;;;;;;3.00;57.05;101017.64;106833;1254;64217;-67
2024/02/27 00:40:05;;;;;;;15.30;7.10;;;;;;;2.99;56.88;101023.91;106921;1253;59319;-67
2024/02/27 00:42:32;;;;;;;15.50;7.30;;;;;;;2.98;56.76;101021.49;106868;1254;64066;-68
2024/02/27 00:44:59;;;;;;;15.60;7.50;;;;;;;2.97;56.60;101017.02;106890;1254;59317;-68
2024/02/27 00:47:26;;;;;;;13.60;7.30;;;;;;;2.96;56.59;101013.79;106878;1254;60322;-68
2024/02/27 00:49:52;;;;;;;13.20;6.40;;;;;;;2.95;56.50;101009.28;106927;1254;63968;-68
2024/02/27 00:52:19;;;;;;;16.20;7.10;;;;;;;2.94;56.53;101008.27;107034;1254;60434;-68
2024/02/27 00:54:46;;;;;;;14.10;7.50;;;;;;;2.93;56.66;101008.48;106952;1254;63808;-68
2024/02/27 00:57:13;;;;;;;14.50;7.40;;;;;;;2.93;56.90;101006.77;106881;1254;58592;-69
2024/02/27 00:59:40;;;;;;;16.60;7.30;;;;;;;2.92;57.23;101004.02;106727;1254;60108;-68
2024/02/27 01:02:06;;;;;;;14.20;7.90;;;;;;;2.92;57.50;101000.53;106872;1254;65089;-68
2024/02/27 01:04:33;;;;;;;15.50;8.10;;;;;;;2.92;57.83;100997.91;106851;1254;60343;-68
2024/02/27 01:07:00;;;;;;;16.60;8.40;;;;;;;2.92;58.16;100998.98;106839;1258;62601;-67
2024/02/27 01:09:27;;;;;;;18.00;8.70;;;;;;;2.89;58.48;101000.80;106837;1254;60477;-67
2024/02/27 01:11:54;;;;;;;16.80;8.40;;;;;;;2.87;58.77;101003.11;106872;1254;60397;-68
2024/02/27 01:14:20;;;;;;;16.20;7.90;;;;;;;2.88;59.08;101003.08;106673;1254;65061;-68
2024/02/27 01:16:47;;;;;;;14.70;8.60;;;;;;;2.87;59.24;101009.20;106862;1255;60518;-68
2024/02/27 01:19:14;;;;;;;17.00;8.70;;;;;;;2.86;59.41;101005.08;106829;1254;63758;-68
2024/02/27 01:21:42;;;;;;;17.20;8.50;;;;;;;2.85;59.56;101007.02;106660;1260;60391;-68
2024/02/27 01:24:08;;;;;;;17.40;8.30;;;;;;;2.84;59.71;101011.96;106880;1254;59294;-68
2024/02/27 01:26:36;;;;;;;16.00;8.00;;;;;;;2.82;59.70;101009.93;106841;1254;63854;-68
2024/02/27 01:29:02;;;;;;;15.60;7.60;;;;;;;2.81;59.68;101007.02;106885;1254;60404;-69
2024/02/27 01:31:29;;;;;;;17.10;8.40;;;;;;;2.81;59.70;101001.81;106654;1255;63923;-68
2024/02/27 01:33:56;;;;;;;14.40;8.10;;;;;;;2.80;59.70;101004.80;106890;1254;60564;-68
2024/02/27 01:36:23;;;;;;;18.30;8.70;;;;;;;2.79;59.83;101006.02;106841;1254;60924;-68
2024/02/27 01:38:50;;;;;;;17.40;8.10;;;;;;;2.77;60.04;101005.40;106797;1254;65073;-68
2024/02/27 01:41:17;;;;;;;17.90;8.80;;;;;;;2.76;60.16;101006.34;106797;1254;60465;-69
2024/02/27 01:43:44;;;;;;;19.50;8.70;;;;;;;2.74;60.34;101006.40;106811;1254;64039;-68
2024/02/27 01:46:13;;;;;;;15.10;8.60;;;;;;;2.74;60.43;101005.02;106808;1254;60394;-68
2024/02/27 01:48:40;;;;;;;17.90;8.50;;;;;;;2.73;60.60;101008.70;106633;1254;58850;-68
2024/02/27 01:51:07;;;;;;;14.10;7.80;;;;;;;2.72;60.77;101012.73;106841;1254;65007;-69
2024/02/27 01:53:34;;;;;;;14.60;8.60;;;;;;;2.71;60.84;101010.69;106719;1254;60444;-68
2024/02/27 01:56:00;;;;;;;17.20;7.40;;;;;;;2.70;60.92;101006.73;106675;1254;63979;-68
2024/02/27 01:58:27;;;;;;;13.40;7.20;;;;;;;2.69;60.94;101006.41;106891;1255;60495;-68
2024/02/27 02:00:54;;;;;;;14.30;7.60;;;;;;;2.67;60.86;101007.19;106884;1254;60490;-69
2024/02/27 02:03:22;;;;;;;14.20;8.00;;;;;;;2.66;60.81;101007.04;106820;1254;65079;-69
2024/02/27 02:05:49;;;;;;;15.60;7.00;;;;;;;2.66;60.84;101005.14;106837;1254;60306;-69
2024/02/27 02:08:16;;;;;;;11.20;6.70;;;;;;;2.64;60.71;101003.45;106862;1254;63824;-69
2024/02/27 02:10:43;;;;;;;13.90;7.00;;;;;;;2.63;60.70;101004.71;106671;1254;60506;-69
2024/02/27 02:13:10;;;;;;;15.10;6.80;;;;;;;2.61;60.69;101005.16;106718;1254;60574;-69
2024/02/27 02:15:37;;;;;;;14.10;7.70;;;;;;;2.59;60.63;101005.73;106703;1258;65013;-70
2024/02/27 02:18:04;;;;;;;14.10;6.90;;;;;;;2.57;60.62;101004.75;106653;1254;60573;-69
2024/02/27 02:20:31;;;;;;;12.50;7.00;;;;;;;2.56;60.58;101010.89;106868;1257;63989;-69
2024/02/27 02:22:57;;;;;;;12.70;7.30;;;;;;;2.55;60.50;101012.84;106821;1254;61668;-69
2024/02/27 02:25:24;;;;;;;15.90;7.50;;;;;;;2.54;60.61;101017.73;106657;1254;60454;-69
2024/02/27 02:27:51;;;;;;;14.70;7.50;;;;;;;2.53;60.67;101017.42;106652;1254;65091;-69
2024/02/27 02:30:17;;;;;;;11.60;6.70;;;;;;;2.52;60.70;101019.38;106874;1254;60469;-69
2024/02/27 02:32:48;;;;;;;13.50;7.20;;;;;;;2.50;60.69;101019.27;106848;1254;64873;-69
2024/02/27 02:35:15;;;;;;;14.20;7.30;;;;;;;2.47;60.69;101019.71;106871;1254;60559;-69
2024/02/27 02:37:42;;;;;;;16.70;7.30;;;;;;;2.46;60.68;101020.30;106857;1254;60470;-69
2024/02/27 02:40:09;;;;;;;15.70;7.30;;;;;;;2.44;60.72;101020.38;106841;1259;65830;-69
2024/02/27 02:42:36;;;;;;;12.60;7.30;;;;;;;2.40;60.73;101018.58;106856;1254;60479;-69
2024/02/27 02:45:03;;;;;;;14.30;7.20;;;;;;;2.37;60.77;101022.03;106669;1254;62880;-69
2024/02/27 02:47:30;;;;;;;16.20;7.50;;;;;;;2.32;60.82;101019.41;106872;1254;60501;-69
2024/02/27 02:49:57;;;;;;;12.50;7.50;;;;;;;2.29;60.96;101022.45;106826;1254;60415;-69
2024/02/27 02:52:24;;;;;;;14.00;7.10;;;;;;;2.27;61.01;101022.70;106888;1254;63675;-69
2024/02/27 02:54:50;;;;;;;14.90;7.20;;;;;;;2.24;61.09;101020.90;106837;1254;67125;-69
2024/02/27 02:57:17;;;;;;;12.40;6.90;;;;;;;2.22;61.06;101023.55;106766;1254;62877;-69
2024/02/27 02:59:44;;;;;;;14.00;7.20;;;;;;;2.21;61.13;101019.95;106787;1254;60484;-69
2024/02/27 03:02:11;;;;;;;14.20;7.60;;;;;;;2.19;61.17;101017.41;106730;1254;59539;-69
2024/02/27 03:04:38;;;;;;;16.20;7.50;;;;;;;2.17;61.17;101023.05;106778;1254;65243;-68
2024/02/27 03:07:06;;;;;;;15.70;7.40;;;;;;;2.15;61.23;101022.42;106787;1254;60485;-69
2024/02/27 03:09:33;;;;;;;15.00;7.10;;;;;;;2.14;61.24;101019.50;106606;1254;63850;-68
2024/02/27 03:12:00;;;;;;;12.30;7.10;;;;;;;2.14;61.32;101017.95;106788;1254;60448;-68
2024/02/27 03:14:27;;;;;;;19.10;8.20;;;;;;;2.13;61.37;101018.67;106644;1258;58445;-68
2024/02/27 03:16:54;;;;;;;17.70;8.20;;;;;;;2.12;61.39;101017.65;106814;1254;65157;-68
2024/02/27 03:19:20;;;;;;;16.20;8.60;;;;;;;2.10;61.41;101022.59;106798;1254;60610;-69
2024/02/27 03:21:47;;;;;;;14.90;7.80;;;;;;;2.08;61.50;101024.41;106772;1254;64028;-68
2024/02/27 03:24:14;;;;;;;15.10;8.40;;;;;;;2.07;61.60;101026.19;106772;1254;60486;-68
2024/02/27 03:26:42;;;;;;;14.90;8.50;;;;;;;2.06;61.72;101027.23;106760;1254;59226;-68
2024/02/27 03:29:09;;;;;;;20.00;8.90;;;;;;;2.05;61.76;101026.76;106783;1254;63764;-68
2024/02/27 03:31:35;;;;;;;20.90;9.00;;;;;;;2.05;61.93;101028.69;106789;1254;60350;-68
2024/02/27 03:34:02;;;;;;;18.60;9.60;;;;;;;2.03;61.93;101030.30;106782;1254;63994;-68
2024/02/27 03:36:29;;;;;;;17.00;8.40;;;;;;;2.01;61.96;101028.95;106834;1254;60349;-68
2024/02/27 03:38:56;;;;;;;16.00;9.00;;;;;;;2.00;62.04;101026.92;106841;1254;60321;-68
2024/02/27 03:41:23;;;;;;;15.00;9.00;;;;;;;1.99;62.06;101026.95;106792;1254;65030;-68
2024/02/27 03:43:49;;;;;;;21.50;9.60;;;;;;;1.98;62.11;101025.60;106823;1254;60323;-69
2024/02/27 03:46:16;;;;;;;18.80;8.80;;;;;;;1.97;62.12;101027.20;106745;1254;62942;-68
2024/02/27 03:48:43;;;;;;;14.20;8.70;;;;;;;1.96;62.14;101025.66;106753;1254;60610;-68
2024/02/27 03:51:09;;;;;;;17.80;8.40;;;;;;;1.95;62.11;101026.76;106765;1254;60531;-67
2024/02/27 03:53:36;;;;;;;16.70;8.90;;;;;;;1.95;62.21;101028.33;106813;1254;65144;-67
2024/02/27 03:56:05;;;;;;;16.20;8.70;;;;;;;1.95;62.14;101030.40;106810;1254;60486;-68
2024/02/27 03:58:34;;;;;;;19.40;9.20;;;;;;;1.95;62.20;101031.45;106649;1254;62777;-68
2024/02/27 04:01:00;;;;;;;15.80;8.10;;;;;;;1.94;62.23;101031.83;106553;1261;60462;-68
2024/02/27 04:03:28;;;;;;;14.80;9.40;;;;;;;1.92;62.25;101034.65;106803;1254;60376;-68
2024/02/27 04:05:55;;;;;;;17.10;9.20;;;;;;;1.91;62.40;101038.14;106735;1258;64974;-68
2024/02/27 04:08:22;;;;;;;15.30;9.20;;;;;;;1.90;62.50;101041.66;106753;1254;60472;-68
2024/02/27 04:10:48;;;;;;;17.20;9.60;;;;;;;1.89;62.49;101047.59;106753;1254;63699;-68
2024/02/27 04:13:15;;;;;;;17.10;9.10;;;;;;;1.88;62.58;101043.64;106779;1254;60397;-68
2024/02/27 04:15:44;;;;;;;21.40;9.80;;;;;;;1.88;62.72;101046.27;106769;1254;60358;-68
2024/02/27 04:18:13;;;;;;;17.60;9.50;;;;;;;1.88;62.75;101048.34;106744;1258;64097;-69
2024/02/27 04:20:40;;;;;;;23.70;9.90;;;;;;;1.87;62.87;101049.77;106815;1254;59189;-68
2024/02/27 04:23:07;;;;;;;16.30;9.20;;;;;;;1.86;62.94;101045.45;106844;1254;63733;-69
2024/02/27 04:25:33;;;;;;;16.30;9.40;;;;;;;1.85;62.97;101046.20;106735;1254;60326;-68
2024/02/27 04:28:00;;;;;;;18.80;9.00;;;;;;;1.84;63.03;101055.08;106615;1254;60377;-68
2024/02/27 04:30:27;;;;;;;21.20;8.50;;;;;;;1.84;63.14;101054.74;106786;1254;63912;-68
2024/02/27 04:32:54;;;;;;;13.50;7.60;;;;;;;1.82;63.23;101060.15;106775;1254;60476;-67
2024/02/27 04:35:20;;;;;;;14.60;8.20;;;;;;;1.81;63.33;101066.96;106696;1254;63888;-67
2024/02/27 04:37:47;;;;;;;19.40;8.50;;;;;;;1.80;63.37;101070.84;106681;1254;59470;-67
2024/02/27 04:40:14;;;;;;;17.50;8.40;;;;;;;1.79;63.45;101072.77;106733;1254;60807;-67
2024/02/27 04:42:41;;;;;;;17.70;8.60;;;;;;;1.79;63.56;101073.96;106739;1255;65602;-69
2024/02/27 04:45:08;;;;;;;15.20;8.40;;;;;;;1.81;63.55;101075.67;106818;1254;60410;-67
2024/02/27 04:47:35;;;;;;;16.80;8.40;;;;;;;1.80;63.64;101080.89;106620;1254;62612;-68
2024/02/27 04:50:01;;;;;;;15.00;8.40;;;;;;;1.78;63.77;101084.78;106737;1254;60369;-68
2024/02/27 04:52:28;;;;;;;16.20;8.50;;;;;;;1.77;63.86;101083.42;106809;1254;58996;-67
2024/02/27 04:54:55;;;;;;;23.30;9.00;;;;;;;1.78;63.90;101085.15;106702;1254;65010;-68
2024/02/27 04:57:22;;;;;;;21.20;8.50;;;;;;;1.79;63.93;101086.15;106784;1254;60245;-68
2024/02/27 04:59:49;;;;;;;18.20;7.90;;;;;;;1.79;64.00;101086.31;106570;1254;63880;-67
2024/02/27 05:02:16;;;;;;;18.00;7.50;;;;;;;1.78;64.05;101086.70;106789;1254;60481;-68
2024/02/27 05:04:42;;;;;;;20.40;7.80;;;;;;;1.77;64.06;101089.35;106797;1254;60457;-67
2024/02/27 05:07:09;;;;;;;17.80;8.00;;;;;;;1.75;64.01;101087.84;106769;1254;63841;-68
2024/02/27 05:14:09;;;;;;;17.20;6.80;;;;;;;1.75;64.03;101099.67;106813;1254;60275;-73
2024/02/27 05:16:35;;;;;;;16.90;6.60;;;;;;;1.75;64.05;101100.52;106836;1254;60575;-69
2024/02/27 05:19:03;;;;;;;18.70;7.70;;;;;;;1.76;64.02;101101.73;106617;1254;65003;-70
2024/02/27 05:21:30;;;;;;;18.70;7.70;;;;;;;1.76;64.04;101103.45;106629;1254;60363;-74
2024/02/27 05:23:58;;;;;;;16.90;7.40;;;;;;;1.78;64.04;101104.95;106643;1254;64019;-70
2024/02/27 05:26:24;;;;;;;16.00;7.60;;;;;;;1.80;64.02;101108.87;106775;1254;60480;-70
2024/02/27 05:28:51;;;;;;;17.20;7.60;;;;;;;1.82;64.01;101106.00;106805;1254;60480;-70
2024/02/27 05:31:25;;;;;;;14.30;7.00;;;;;;;1.86;63.95;101105.19;106650;1254;64275;-70
2024/02/27 05:33:53;;;;;;;22.40;7.20;;;;;;;1.90;63.96;101110.10;106669;1254;60413;-66
2024/02/27 05:36:21;;;;;;;24.00;8.60;;;;;;;1.92;63.98;101112.47;105931;1254;62743;-62
2024/02/27 05:38:49;;;;;;;19.00;7.40;;;;;;;1.95;63.91;101113.95;104705;1254;60908;-65
2024/02/27 05:41:17;;;;;;;26.80;7.80;;;;;;;1.97;63.87;101120.12;104489;1252;59772;-67
2024/02/27 05:43:44;;;;;;;19.70;7.10;;;;;;;1.99;63.80;101120.39;104508;1254;64137;-66
2024/02/27 05:46:11;;;;;;;25.00;7.90;;;;;;;2.02;63.75;101118.23;104720;1253;58865;-67
2024/02/27 05:48:39;;;;;;;30.00;7.80;;;;;;;2.05;63.77;101119.36;104684;1256;62585;-66
2024/02/27 05:51:06;;;;;;;21.00;7.10;;;;;;;2.09;63.81;101122.36;106725;1252;59395;-70
2024/02/27 05:53:34;;;;;;;24.70;7.20;;;;;;;2.13;63.84;101121.53;106982;1253;60406;-70
2024/02/27 05:56:01;;;;;;;27.10;7.80;;;;;;;2.16;63.87;101120.89;106760;1254;63913;-70
2024/02/27 05:58:27;;;;;;;22.00;7.40;;;;;;;2.20;63.75;101119.36;106919;1254;59462;-70
2024/02/27 06:00:55;;;;;;;22.90;7.00;;;;;;;2.24;63.68;101118.38;106772;1259;62479;-68
2024/02/27 06:03:23;;;;;;;21.10;7.30;;;;;;;2.28;63.65;101124.30;106833;1254;60561;-70
2024/02/27 06:05:50;;;;;;;25.10;7.20;;;;;;;2.32;63.58;101128.38;106771;1254;60535;-71
2024/02/27 06:08:17;;;;;;;19.90;6.90;;;;;;;2.35;63.39;101127.75;106752;1254;64413;-70
2024/02/27 06:10:45;;;;;;;21.90;7.40;;;;;;;2.39;63.25;101129.88;106802;1254;58594;-67
2024/02/27 06:13:12;;;;;;;26.90;7.80;;;;;;;2.41;63.24;101132.41;106817;1254;63934;-67
2024/02/27 06:15:39;;;;;;;22.60;7.50;;;;;;;2.44;63.25;101136.83;106794;1254;60239;-67
2024/02/27 06:18:13;;;;;;;20.90;7.80;;;;;;;2.47;63.23;101138.78;104325;1258;60548;-67
2024/02/27 06:23:27;;;;;;;22.20;7.70;;;;;;;2.54;63.38;101138.39;104596;1254;60555;-67
2024/02/27 06:25:54;;;;;;;17.90;7.90;;;;;;;2.57;63.36;101140.20;104730;1253;62754;-67
2024/02/27 06:28:22;;;;;;;21.20;8.50;;;;;;;2.60;63.39;101149.48;104572;1257;59989;-67
2024/02/27 06:30:48;;;;;;;23.00;8.40;;;;;;;2.62;63.39;101151.34;104585;1254;60549;-67
2024/02/27 06:33:15;;;;;;;24.20;8.90;;;;;;;2.64;63.37;101151.11;104621;1254;65212;-67
2024/02/27 06:35:42;;;;;;;23.30;8.40;;;;;;;2.66;63.40;101150.52;104617;1254;59636;-68
2024/02/27 06:38:09;;;;;;;20.80;8.70;;;;;;;2.69;63.43;101151.28;104510;1254;65123;-67
2024/02/27 06:40:36;;;;;;;26.80;8.10;;;;;;;2.73;63.45;101150.95;104591;1254;60453;-68
2024/02/27 06:43:03;;;;;;;24.50;8.90;;;;;;;2.78;63.46;101150.08;104651;1252;60451;-67
2024/02/27 06:45:32;;;;;;;29.60;9.40;;;;;;;2.82;63.33;101147.88;104498;1254;64055;-67
2024/02/27 06:47:59;;;;;;;21.50;8.60;;;;;;;2.83;63.30;101148.16;104493;1254;58965;-68
2024/02/27 06:50:26;;;;;;;24.40;8.90;;;;;;;2.85;63.31;101152.27;104254;1257;64017;-67
2024/02/27 06:52:54;;;;;;;22.60;9.60;;;;;;;2.90;63.29;101154.03;104502;1252;60421;-68
2024/02/27 06:55:21;;;;;;;27.40;8.70;;;;;;;2.94;63.17;101156.99;104554;1254;59386;-68
2024/02/27 06:57:49;;;;;;;23.90;9.30;;;;;;;2.95;63.03;101155.92;104512;1254;63981;-68
2024/02/27 07:00:17;;;;;;;25.50;9.40;;;;;;;2.98;63.05;101158.25;104468;1256;60453;-68
2024/02/27 07:02:44;;;;;;;22.20;8.60;;;;;;;3.01;62.91;101161.98;104534;1254;63988;-68
2024/02/27 07:14:22;;;;;;;18.70;8.20;;;;;;;3.10;62.68;101156.96;104537;1254;66006;-68
2024/02/27 07:16:49;;;;;;;22.70;8.70;;;;;;;3.14;62.53;101156.63;106822;1254;60489;-69
2024/02/27 07:19:19;;;;;;;27.10;8.10;;;;;;;3.15;62.36;101156.39;106944;1253;65845;-69
2024/02/27 07:21:49;;;;;;;21.00;8.70;;;;;;;3.17;62.29;101160.34;106962;1252;60533;-68
2024/02/27 07:24:16;;;;;;;25.60;9.00;;;;;;;3.20;62.39;101164.77;106792;1254;60465;-68
2024/02/27 07:26:43;;;;;;;29.20;9.30;;;;;;;3.25;62.36;101165.27;106941;1253;65866;-68
2024/02/27 07:29:13;;;;;;;24.70;9.20;;;;;;;3.31;62.26;101169.58;106962;1252;60552;-68
2024/02/27 07:31:40;;;;;;;17.20;8.50;;;;;;;3.37;62.10;101172.85;106834;1254;65647;-68
2024/02/27 07:34:11;;;;;;;24.80;9.10;;;;;;;3.38;61.79;101172.27;106944;1254;60486;-68
2024/02/27 07:36:38;;;;;;;27.10;9.10;;;;;;;3.36;61.47;101173.59;106996;1252;59174;-68
2024/02/27 07:39:05;;;;;;;26.10;8.70;;;;;;;3.33;61.43;101174.57;106795;1254;65214;-68
2024/02/27 07:41:32;;;;;;;23.50;9.00;;;;;;;3.35;61.59;101171.70;106950;1254;60411;-68
2024/02/27 07:43:58;;;;;;;23.60;8.70;;;;;;;3.41;61.67;101169.41;106760;1257;64252;-68
2024/02/27 07:46:25;;;;;;;25.40;8.60;;;;;;;3.47;61.50;101170.05;106931;1253;60357;-68
2024/02/27 07:48:52;;;;;;;22.00;9.00;;;;;;;3.49;61.26;101169.81;106888;1254;60450;-68
2024/02/27 07:51:27;;;;;;;21.50;8.60;;;;;;;3.50;61.19;101167.69;106975;1254;72771;-68
2024/02/27 07:53:54;;;;;;;19.60;8.80;;;;;;;3.50;61.14;101170.29;106916;1254;59293;-67
2024/02/27 07:56:21;;;;;;;17.90;8.50;;;;;;;3.52;61.21;101167.58;106074;1254;65482;-67
2024/02/27 07:58:51;;;;;;;17.40;7.90;;;;;;;3.56;61.00;101171.77;109348;1252;58116;-68
2024/02/27 08:01:19;;;;;;;21.60;8.90;;;;;;;3.57;60.94;101172.45;109412;1252;58039;-67
2024/02/27 08:03:46;;;;;;;26.00;8.90;;;;;;;3.57;60.90;101175.77;109411;1252;75093;-67
2024/02/27 08:06:13;;;;;;;29.70;8.90;;;;;;;3.61;60.99;101175.61;109594;1252;68525;-68
2024/02/27 08:08:40;;;;;;;18.80;8.70;;;;;;;3.68;60.91;101178.14;109576;1253;64103;-67
2024/02/27 08:11:07;;;;;;;23.20;9.00;;;;;;;3.73;60.87;101178.79;109537;1252;58201;-68
2024/02/27 08:13:34;;;;;;;23.50;9.50;;;;;;;3.80;60.92;101179.93;109483;1252;58154;-68
2024/02/27 08:16:00;;;;;;;18.80;9.40;;;;;;;3.91;60.86;101177.58;109570;1252;66406;-68
2024/02/27 08:18:27;;;;;;;27.50;8.60;;;;;;;3.99;60.75;101173.94;109509;1252;59423;-67
2024/02/27 08:20:54;;;;;;;24.50;9.10;;;;;;;4.06;60.44;101176.65;109587;1252;65303;-68
2024/02/27 08:23:24;;;;;;;25.40;9.60;;;;;;;4.11;60.20;101174.90;109596;1252;58200;-68
2024/02/27 08:25:51;;;;;;;21.10;9.60;;;;;;;4.12;60.05;101171.33;109579;1253;58029;-67
2024/02/27 08:28:20;;;;;;;23.40;9.50;;;;;;;4.14;59.92;101171.98;109572;1253;65232;-68
2024/02/27 08:30:47;;;;;;;20.60;9.30;;;;;;;4.17;59.96;101173.08;109390;1254;58606;-67
2024/02/27 08:33:14;;;;;;;20.20;9.60;;;;;;;4.22;59.84;101171.12;109489;1252;65223;-67
2024/02/27 08:35:41;;;;;;;24.30;9.60;;;;;;;4.28;59.99;101172.08;109454;1253;59952;-67
2024/02/27 08:38:08;;;;;;;16.40;8.80;;;;;;;4.40;59.96;101169.88;109611;1252;58242;-68
2024/02/27 08:40:37;;;;;;;28.00;10.00;;;;;;;4.51;59.83;101160.33;109626;1252;65229;-69
2024/02/27 08:43:03;;;;;;;22.40;8.90;;;;;;;4.63;59.74;101156.69;109573;1252;58430;-69
2024/02/27 08:45:31;;;;;;;24.20;9.60;;;;;;;4.73;59.51;101152.41;109598;1252;64033;-68
2024/02/27 08:47:57;;;;;;;22.80;8.80;;;;;;;4.81;59.39;101147.55;109598;1253;58362;-68
2024/02/27 08:50:25;;;;;;;21.10;9.00;;;;;;;4.92;59.17;101152.34;109448;1253;58202;-68
2024/02/27 08:52:51;;;;;;;25.60;9.50;;;;;;;4.97;58.78;101154.20;109592;1253;66458;-68
2024/02/27 08:55:19;;;;;;;25.70;8.30;;;;;;;5.01;58.60;101156.45;109596;1252;68300;-68
2024/02/27 08:57:46;;;;;;;24.00;9.10;;;;;;;5.05;58.36;101155.93;109591;1253;63948;-68
2024/02/27 09:00:14;;;;;;;20.80;8.90;;;;;;;5.08;58.30;101152.28;109511;1252;58088;-68
2024/02/27 09:02:42;;;;;;;18.60;8.40;;;;;;;5.14;58.18;101158.13;109654;1253;58020;-68
2024/02/27 09:05:09;;;;;;;23.50;9.20;;;;;;;5.16;57.68;101154.38;109626;1253;66255;-68
2024/02/27 09:07:40;;;;;;;28.70;9.10;;;;;;;5.14;57.69;101151.50;109633;1252;58516;-68
2024/02/27 09:10:10;;;;;;;25.10;8.90;;;;;;;5.18;57.56;101153.43;109424;1253;65157;-69
2024/02/27 09:12:38;;;;;;;32.20;9.90;;;;;;;5.22;57.46;101150.11;109515;1253;61282;-68
2024/02/27 09:15:06;;;;;;;23.20;9.00;;;;;;;5.28;57.52;101152.81;109501;1253;58523;-68
2024/02/27 09:17:36;;;;;;;25.40;9.00;;;;;;;5.29;57.11;101151.73;109628;1253;64087;-68
2024/02/27 09:20:03;;;;;;;28.60;9.10;;;;;;;5.30;57.15;101153.39;109618;1252;59585;-68
2024/02/27 09:22:31;;;;;;;24.80;9.00;;;;;;;5.36;57.08;101153.66;109591;1252;62770;-69
2024/02/27 09:24:58;;;;;;;26.80;8.70;;;;;;;5.44;57.17;101153.66;109568;1252;58232;-69
2024/02/27 09:27:25;;;;;;;18.90;7.90;;;;;;;5.55;57.13;101154.52;109629;1253;58218;-69
2024/02/27 09:29:52;;;;;;;22.70;8.90;;;;;;;5.62;56.56;101155.61;109620;1253;64352;-69
2024/02/27 09:32:20;;;;;;;23.60;8.90;;;;;;;5.58;56.29;101155.60;109469;1252;58207;-68
2024/02/27 09:34:49;;;;;;;22.40;8.00;;;;;;;5.60;56.36;101155.70;109599;1252;65329;-68
2024/02/27 09:37:18;;;;;;;25.30;8.90;;;;;;;5.68;56.30;101158.11;109591;1252;58087;-69
2024/02/27 09:39:45;;;;;;;21.00;8.70;;;;;;;5.77;56.00;101157.36;109472;1254;58028;-68
2024/02/27 09:42:25;;;;;;;25.80;8.90;;;;;;;5.84;55.88;101155.95;109596;1253;74793;-68
2024/02/27 09:45:07;;;;;;;22.00;8.30;;;;;;;5.92;55.43;101154.42;109598;1252;59590;-68
2024/02/27 09:47:45;;;;;;;22.80;8.60;;;;;;;5.92;54.95;101153.55;109600;1253;64056;-69
2024/02/27 09:50:17;;;;;;;25.90;8.50;;;;;;;5.94;55.08;101158.15;109366;1253;58947;-68
2024/02/27 09:52:51;;;;;;;24.20;8.60;;;;;;;5.99;55.07;101157.58;109305;1252;58243;-69
2024/02/27 09:55:20;;;;;;;17.00;8.20;;;;;;;6.05;54.86;101159.56;109653;1253;65374;-68
2024/02/27 09:57:47;;;;;;;21.60;9.30;;;;;;;6.12;54.61;101162.17;109626;1254;59547;-68
2024/02/27 10:00:16;;;;;;;24.80;8.70;;;;;;;6.21;54.63;101166.12;109564;1252;73864;-69
2024/02/27 10:02:49;;;;;;;26.80;8.20;;;;;;;6.32;54.50;101162.79;109416;1253;58121;-69
2024/02/27 10:05:17;;;;;;;28.50;8.00;;;;;;;6.45;54.37;101163.52;109284;1253;58109;-69
2024/02/27 10:07:53;;;;;;;18.80;8.20;;;;;;;6.62;54.00;101161.13;109608;1253;66524;-69
2024/02/27 10:10:21;;;;;;;24.40;8.70;;;;;;;6.74;53.45;101158.93;109573;1253;58141;-69
2024/02/27 10:12:48;;;;;;;19.80;8.50;;;;;;;6.88;53.08;101163.80;109601;1254;65222;-68
2024/02/27 10:15:15;;;;;;;26.70;9.70;;;;;;;6.98;52.35;101158.73;109556;1253;58239;-69
2024/02/27 10:17:43;;;;;;;19.30;8.00;;;;;;;6.99;52.29;101158.35;109636;1253;58234;-69
2024/02/27 10:20:13;;;;;;;21.70;9.00;;;;;;;7.04;52.25;101155.61;109614;1252;66460;-68
2024/02/27 10:22:41;;;;;;;19.90;8.70;;;;;;;7.05;51.85;101157.65;109247;1256;59815;-68
2024/02/27 10:25:14;;;;;;;26.10;9.00;;;;;;;7.04;51.66;101157.88;109288;1254;73915;-68
2024/02/27 10:27:43;;;;;;;25.20;8.20;;;;;;;7.09;51.51;101156.06;109146;1254;58126;-68
2024/02/27 10:30:11;;;;;;;27.60;8.70;;;;;;;7.13;51.18;101153.21;109248;1254;58074;-68
2024/02/27 10:32:40;;;;;;;21.10;7.90;;;;;;;7.05;51.14;101152.93;109378;1254;64178;-68
2024/02/27 10:35:08;;;;;;;23.10;7.50;;;;;;;7.04;51.11;101153.34;109422;1254;61004;-68
2024/02/27 10:37:36;;;;;;;17.70;7.60;;;;;;;7.10;51.05;101150.58;109358;1254;62737;-68
2024/02/27 10:40:15;;;;;;;18.60;8.00;;;;;;;7.20;50.89;101153.55;109243;1257;58216;-68
2024/02/27 10:42:47;;;;;;;24.50;8.00;;;;;;;7.33;50.87;101150.95;109312;1254;58606;-68
2024/02/27 10:45:24;;;;;;;21.80;7.90;;;;;;;7.52;50.77;101145.02;109402;1255;66403;-68
2024/02/27 10:47:56;;;;;;;22.00;7.90;;;;;;;7.75;50.38;101144.24;109293;1256;59860;-68
2024/02/27 10:50:22;;;;;;;31.50;7.80;;;;;;;7.90;49.62;101141.48;109284;1254;62720;-69
2024/02/27 10:52:50;;;;;;;15.70;7.00;;;;;;;7.96;48.98;101139.38;109287;1254;58164;-68
2024/02/27 10:55:18;;;;;;;22.10;6.50;;;;;;;8.05;48.29;101135.75;109478;1254;58019;-69
2024/02/27 10:57:46;;;;;;;20.70;7.00;;;;;;;8.07;47.70;101138.79;109127;1253;66029;-68
2024/02/27 11:00:13;;;;;;;23.40;6.30;;;;;;;8.08;47.82;101139.59;109300;1254;59697;-68
2024/02/27 11:02:44;;;;;;;25.60;7.50;;;;;;;8.20;48.01;101132.39;109293;1254;65043;-69
2024/02/27 11:05:11;;;;;;;23.30;6.70;;;;;;;8.43;47.67;101136.21;109151;1253;58163;-68
2024/02/27 11:07:38;;;;;;;17.90;6.60;;;;;;;8.57;46.99;101133.44;109194;1253;58058;-70
2024/02/27 11:10:05;;;;;;;19.10;6.70;;;;;;;8.70;46.88;101128.14;109458;1254;66458;-70
2024/02/27 11:12:32;;;;;;;27.00;7.60;;;;;;;8.85;46.31;101128.93;109307;1254;59730;-68
2024/02/27 11:15:03;;;;;;;18.60;6.50;;;;;;;8.95;46.15;101127.14;109266;1254;63975;-68
2024/02/27 11:17:36;;;;;;;19.50;7.20;;;;;;;9.08;45.88;101125.09;109466;1254;58398;-68
2024/02/27 11:20:06;;;;;;;22.70;6.50;;;;;;;9.19;45.48;101124.92;109484;1255;57991;-68
2024/02/27 11:22:34;;;;;;;21.20;6.80;;;;;;;9.30;44.93;101123.37;109183;1255;66258;-68
2024/02/27 11:25:03;;;;;;;25.50;6.90;;;;;;;9.38;44.71;101127.99;109516;1254;65207;-68
2024/02/27 11:27:30;;;;;;;21.50;6.40;;;;;;;9.47;45.01;101131.11;109274;1254;65161;-68
2024/02/27 11:29:57;;;;;;;23.50;6.70;;;;;;;9.61;45.05;101125.33;109308;1255;58258;-68
2024/02/27 11:32:24;;;;;;;19.70;6.40;;;;;;;9.68;44.60;101119.42;109505;1254;58150;-68
2024/02/27 11:34:51;;;;;;;18.00;6.10;;;;;;;9.73;44.47;101120.34;109175;1254;64111;-67